sensor_id;sensor_type;location;lat;lon;timestamp;P1;durP1;ratioP1;P2;durP2;ratioP2
22417;SDS011;11376;50.932;4.442;2023-02-13T00:01:14;106.47;;;34.03;;
22417;SDS011;11376;50.932;4.442;2023-02-13T00:03:40;100.90;;;32.80;;
22417;SDS011;11376;50.932;4.442;2023-02-13T00:06:06;99.63;;;32.63;;
22417;SDS011;11376;50.932;4.442;2023-02-13T00:08:32;101.40;;;32.63;;
22417;SDS011;11376;50.932;4.442;2023-02-13T00:10:57;95.27;;;32.40;;
22417;SDS011;11376;50.932;4.442;2023-02-13T00:13:23;100.67;;;32.70;;
22417;SDS011;11376;50.932;4.442;2023-02-13T00:15:58;92.80;;;31.30;;
22417;SDS011;11376;50.932;4.442;2023-02-13T00:18:25;96.03;;;31.90;;
22417;SDS011;11376;50.932;4.442;2023-02-13T00:21:05;94.63;;;31.87;;
22417;SDS011;11376;50.932;4.442;2023-02-13T00:23:33;105.57;;;32.43;;
22417;SDS011;11376;50.932;4.442;2023-02-13T00:26:00;96.60;;;32.53;;
22417;SDS011;11376;50.932;4.442;2023-02-13T00:28:29;96.00;;;31.20;;
22417;SDS011;11376;50.932;4.442;2023-02-13T00:31:01;100.53;;;32.27;;
22417;SDS011;11376;50.932;4.442;2023-02-13T00:33:35;104.30;;;32.53;;
22417;SDS011;11376;50.932;4.442;2023-02-13T00:36:02;118.50;;;35.17;;
22417;SDS011;11376;50.932;4.442;2023-02-13T00:38:32;121.70;;;35.57;;
22417;SDS011;11376;50.932;4.442;2023-02-13T00:40:58;99.73;;;33.13;;
22417;SDS011;11376;50.932;4.442;2023-02-13T00:43:23;117.27;;;33.53;;
22417;SDS011;11376;50.932;4.442;2023-02-13T00:45:49;109.87;;;34.03;;
22417;SDS011;11376;50.932;4.442;2023-02-13T00:48:14;105.97;;;32.80;;
22417;SDS011;11376;50.932;4.442;2023-02-13T00:50:40;115.33;;;33.70;;
22417;SDS011;11376;50.932;4.442;2023-02-13T00:53:06;110.30;;;34.50;;
22417;SDS011;11376;50.932;4.442;2023-02-13T00:55:32;124.07;;;35.47;;
22417;SDS011;11376;50.932;4.442;2023-02-13T00:57:59;121.37;;;36.23;;
22417;SDS011;11376;50.932;4.442;2023-02-13T01:00:25;118.80;;;35.53;;
22417;SDS011;11376;50.932;4.442;2023-02-13T01:02:51;118.60;;;35.70;;
22417;SDS011;11376;50.932;4.442;2023-02-13T01:05:17;122.40;;;35.47;;
22417;SDS011;11376;50.932;4.442;2023-02-13T01:07:42;121.47;;;35.43;;
22417;SDS011;11376;50.932;4.442;2023-02-13T01:10:08;110.77;;;33.30;;
22417;SDS011;11376;50.932;4.442;2023-02-13T01:12:34;121.80;;;35.43;;
22417;SDS011;11376;50.932;4.442;2023-02-13T01:15:00;122.27;;;36.33;;
22417;SDS011;11376;50.932;4.442;2023-02-13T01:17:25;111.90;;;33.43;;
22417;SDS011;11376;50.932;4.442;2023-02-13T01:19:51;124.03;;;35.40;;
22417;SDS011;11376;50.932;4.442;2023-02-13T01:22:16;126.77;;;35.07;;
22417;SDS011;11376;50.932;4.442;2023-02-13T01:24:42;124.47;;;34.63;;
22417;SDS011;11376;50.932;4.442;2023-02-13T01:27:07;118.40;;;33.77;;
22417;SDS011;11376;50.932;4.442;2023-02-13T01:29:33;111.77;;;32.90;;
22417;SDS011;11376;50.932;4.442;2023-02-13T01:31:59;112.17;;;33.50;;
22417;SDS011;11376;50.932;4.442;2023-02-13T01:34:26;122.07;;;35.10;;
22417;SDS011;11376;50.932;4.442;2023-02-13T01:36:51;117.73;;;34.30;;
22417;SDS011;11376;50.932;4.442;2023-02-13T01:39:17;126.90;;;34.93;;
22417;SDS011;11376;50.932;4.442;2023-02-13T01:41:43;130.03;;;36.00;;
22417;SDS011;11376;50.932;4.442;2023-02-13T01:47:13;138.50;;;35.50;;
22417;SDS011;11376;50.932;4.442;2023-02-13T01:50:18;125.37;;;34.70;;
22417;SDS011;11376;50.932;4.442;2023-02-13T01:52:47;131.37;;;35.80;;
22417;SDS011;11376;50.932;4.442;2023-02-13T01:55:23;134.87;;;36.77;;
22417;SDS011;11376;50.932;4.442;2023-02-13T01:57:56;125.70;;;35.23;;
22417;SDS011;11376;50.932;4.442;2023-02-13T02:00:26;134.33;;;35.30;;
22417;SDS011;11376;50.932;4.442;2023-02-13T02:02:54;130.17;;;35.03;;
22417;SDS011;11376;50.932;4.442;2023-02-13T02:05:26;125.90;;;34.83;;
22417;SDS011;11376;50.932;4.442;2023-02-13T02:07:54;132.37;;;35.20;;
22417;SDS011;11376;50.932;4.442;2023-02-13T02:10:22;131.50;;;35.57;;
22417;SDS011;11376;50.932;4.442;2023-02-13T02:15:17;141.33;;;36.17;;
22417;SDS011;11376;50.932;4.442;2023-02-13T02:17:42;137.70;;;36.83;;
22417;SDS011;11376;50.932;4.442;2023-02-13T02:25:14;128.00;;;35.93;;
22417;SDS011;11376;50.932;4.442;2023-02-13T02:33:23;139.17;;;36.13;;
22417;SDS011;11376;50.932;4.442;2023-02-13T02:36:01;130.27;;;35.80;;
22417;SDS011;11376;50.932;4.442;2023-02-13T02:41:53;141.53;;;36.53;;
22417;SDS011;11376;50.932;4.442;2023-02-13T02:44:32;148.50;;;37.00;;
22417;SDS011;11376;50.932;4.442;2023-02-13T02:50:53;139.03;;;35.57;;
22417;SDS011;11376;50.932;4.442;2023-02-13T02:56:03;123.13;;;33.97;;
22417;SDS011;11376;50.932;4.442;2023-02-13T02:58:43;121.53;;;32.40;;
22417;SDS011;11376;50.932;4.442;2023-02-13T03:01:31;130.70;;;34.90;;
22417;SDS011;11376;50.932;4.442;2023-02-13T03:04:27;157.60;;;37.23;;
22417;SDS011;11376;50.932;4.442;2023-02-13T03:07:17;163.70;;;39.60;;
22417;SDS011;11376;50.932;4.442;2023-02-13T03:09:46;160.30;;;38.60;;
22417;SDS011;11376;50.932;4.442;2023-02-13T03:13:16;155.50;;;36.80;;
22417;SDS011;11376;50.932;4.442;2023-02-13T03:15:42;172.03;;;39.00;;
22417;SDS011;11376;50.932;4.442;2023-02-13T03:18:28;181.13;;;41.73;;
22417;SDS011;11376;50.932;4.442;2023-02-13T03:21:19;203.70;;;43.67;;
22417;SDS011;11376;50.932;4.442;2023-02-13T03:24:42;196.57;;;42.70;;
22417;SDS011;11376;50.932;4.442;2023-02-13T03:27:26;170.87;;;41.57;;
22417;SDS011;11376;50.932;4.442;2023-02-13T03:30:39;186.33;;;39.97;;
22417;SDS011;11376;50.932;4.442;2023-02-13T03:35:51;243.23;;;41.77;;
22417;SDS011;11376;50.932;4.442;2023-02-13T03:38:58;265.67;;;37.20;;
22417;SDS011;11376;50.932;4.442;2023-02-13T03:41:29;352.73;;;40.70;;
22417;SDS011;11376;50.932;4.442;2023-02-13T03:44:05;357.93;;;42.40;;
22417;SDS011;11376;50.932;4.442;2023-02-13T03:46:40;338.30;;;38.43;;
22417;SDS011;11376;50.932;4.442;2023-02-13T03:49:16;195.60;;;31.90;;
22417;SDS011;11376;50.932;4.442;2023-02-13T03:52:10;306.70;;;34.43;;
22417;SDS011;11376;50.932;4.442;2023-02-13T03:55:06;206.57;;;32.23;;
22417;SDS011;11376;50.932;4.442;2023-02-13T03:57:57;187.10;;;29.60;;
22417;SDS011;11376;50.932;4.442;2023-02-13T04:00:49;198.30;;;30.20;;
22417;SDS011;11376;50.932;4.442;2023-02-13T04:03:32;216.37;;;31.73;;
22417;SDS011;11376;50.932;4.442;2023-02-13T04:06:02;173.47;;;29.57;;
22417;SDS011;11376;50.932;4.442;2023-02-13T04:08:35;253.40;;;33.97;;
22417;SDS011;11376;50.932;4.442;2023-02-13T04:11:48;276.77;;;35.70;;
22417;SDS011;11376;50.932;4.442;2023-02-13T04:13:59;185.50;;;31.23;;
22417;SDS011;11376;50.932;4.442;2023-02-13T04:16:42;205.77;;;33.50;;
22417;SDS011;11376;50.932;4.442;2023-02-13T04:19:10;207.93;;;33.17;;
22417;SDS011;11376;50.932;4.442;2023-02-13T04:21:37;202.60;;;33.70;;
22417;SDS011;11376;50.932;4.442;2023-02-13T04:24:04;497.17;;;47.97;;
22417;SDS011;11376;50.932;4.442;2023-02-13T04:26:34;251.10;;;34.63;;
22417;SDS011;11376;50.932;4.442;2023-02-13T04:29:02;210.03;;;34.10;;
22417;SDS011;11376;50.932;4.442;2023-02-13T04:31:28;195.50;;;32.60;;
22417;SDS011;11376;50.932;4.442;2023-02-13T04:33:53;379.57;;;42.03;;
22417;SDS011;11376;50.932;4.442;2023-02-13T04:36:19;208.27;;;34.33;;
22417;SDS011;11376;50.932;4.442;2023-02-13T04:38:45;355.10;;;41.57;;
22417;SDS011;11376;50.932;4.442;2023-02-13T04:41:10;165.90;;;34.50;;
22417;SDS011;11376;50.932;4.442;2023-02-13T04:43:36;498.00;;;49.60;;
22417;SDS011;11376;50.932;4.442;2023-02-13T04:46:02;202.80;;;34.80;;
22417;SDS011;11376;50.932;4.442;2023-02-13T04:48:28;266.77;;;36.40;;
22417;SDS011;11376;50.932;4.442;2023-02-13T04:50:53;188.63;;;33.53;;
22417;SDS011;11376;50.932;4.442;2023-02-13T04:53:19;196.63;;;31.40;;
22417;SDS011;11376;50.932;4.442;2023-02-13T04:55:45;157.73;;;30.10;;
22417;SDS011;11376;50.932;4.442;2023-02-13T04:58:10;139.40;;;29.40;;
22417;SDS011;11376;50.932;4.442;2023-02-13T05:00:36;136.70;;;29.43;;
22417;SDS011;11376;50.932;4.442;2023-02-13T05:03:05;143.57;;;30.27;;
22417;SDS011;11376;50.932;4.442;2023-02-13T05:05:33;172.13;;;30.47;;
22417;SDS011;11376;50.932;4.442;2023-02-13T05:07:59;112.17;;;27.60;;
22417;SDS011;11376;50.932;4.442;2023-02-13T05:10:25;123.03;;;29.30;;
22417;SDS011;11376;50.932;4.442;2023-02-13T05:12:51;97.87;;;27.00;;
22417;SDS011;11376;50.932;4.442;2023-02-13T05:15:17;104.43;;;28.40;;
22417;SDS011;11376;50.932;4.442;2023-02-13T05:17:43;95.47;;;30.77;;
22417;SDS011;11376;50.932;4.442;2023-02-13T05:20:09;89.00;;;28.07;;
22417;SDS011;11376;50.932;4.442;2023-02-13T05:22:35;85.73;;;28.10;;
22417;SDS011;11376;50.932;4.442;2023-02-13T05:25:20;85.17;;;27.07;;
22417;SDS011;11376;50.932;4.442;2023-02-13T05:27:46;118.13;;;30.37;;
22417;SDS011;11376;50.932;4.442;2023-02-13T05:30:11;116.63;;;28.63;;
22417;SDS011;11376;50.932;4.442;2023-02-13T05:32:38;111.33;;;30.53;;
22417;SDS011;11376;50.932;4.442;2023-02-13T05:35:04;109.17;;;28.93;;
22417;SDS011;11376;50.932;4.442;2023-02-13T05:37:30;114.77;;;28.00;;
22417;SDS011;11376;50.932;4.442;2023-02-13T05:39:56;169.67;;;32.17;;
22417;SDS011;11376;50.932;4.442;2023-02-13T05:42:21;119.90;;;25.90;;
22417;SDS011;11376;50.932;4.442;2023-02-13T05:44:47;117.87;;;29.83;;
22417;SDS011;11376;50.932;4.442;2023-02-13T05:47:12;111.67;;;26.47;;
22417;SDS011;11376;50.932;4.442;2023-02-13T05:49:38;89.23;;;26.33;;
22417;SDS011;11376;50.932;4.442;2023-02-13T05:52:04;92.07;;;27.93;;
22417;SDS011;11376;50.932;4.442;2023-02-13T05:54:29;79.90;;;25.63;;
22417;SDS011;11376;50.932;4.442;2023-02-13T05:56:55;108.53;;;28.00;;
22417;SDS011;11376;50.932;4.442;2023-02-13T05:59:20;81.53;;;27.60;;
22417;SDS011;11376;50.932;4.442;2023-02-13T06:01:46;82.00;;;27.07;;
22417;SDS011;11376;50.932;4.442;2023-02-13T06:04:11;79.93;;;27.03;;
22417;SDS011;11376;50.932;4.442;2023-02-13T06:06:37;70.50;;;26.07;;
22417;SDS011;11376;50.932;4.442;2023-02-13T06:09:03;73.30;;;25.87;;
22417;SDS011;11376;50.932;4.442;2023-02-13T06:11:28;66.43;;;25.07;;
22417;SDS011;11376;50.932;4.442;2023-02-13T06:13:54;75.90;;;25.00;;
22417;SDS011;11376;50.932;4.442;2023-02-13T06:16:19;65.93;;;25.03;;
22417;SDS011;11376;50.932;4.442;2023-02-13T06:18:46;63.03;;;23.30;;
22417;SDS011;11376;50.932;4.442;2023-02-13T06:21:12;61.83;;;23.57;;
22417;SDS011;11376;50.932;4.442;2023-02-13T06:23:37;64.77;;;22.83;;
22417;SDS011;11376;50.932;4.442;2023-02-13T06:26:03;69.73;;;25.33;;
22417;SDS011;11376;50.932;4.442;2023-02-13T06:28:31;64.07;;;23.13;;
22417;SDS011;11376;50.932;4.442;2023-02-13T06:30:57;69.53;;;24.90;;
22417;SDS011;11376;50.932;4.442;2023-02-13T06:33:23;72.53;;;25.50;;
22417;SDS011;11376;50.932;4.442;2023-02-13T06:35:49;67.77;;;23.93;;
22417;SDS011;11376;50.932;4.442;2023-02-13T06:38:14;67.53;;;24.07;;
22417;SDS011;11376;50.932;4.442;2023-02-13T06:40:43;65.43;;;25.00;;
22417;SDS011;11376;50.932;4.442;2023-02-13T06:43:12;69.27;;;25.77;;
22417;SDS011;11376;50.932;4.442;2023-02-13T06:45:38;69.20;;;24.70;;
22417;SDS011;11376;50.932;4.442;2023-02-13T06:48:04;52.77;;;19.23;;
22417;SDS011;11376;50.932;4.442;2023-02-13T06:50:30;70.80;;;24.87;;
22417;SDS011;11376;50.932;4.442;2023-02-13T06:52:56;66.63;;;24.57;;
22417;SDS011;11376;50.932;4.442;2023-02-13T06:55:21;75.97;;;26.03;;
22417;SDS011;11376;50.932;4.442;2023-02-13T06:57:47;64.70;;;23.93;;
22417;SDS011;11376;50.932;4.442;2023-02-13T07:00:13;73.07;;;24.30;;
22417;SDS011;11376;50.932;4.442;2023-02-13T07:02:40;70.90;;;25.53;;
22417;SDS011;11376;50.932;4.442;2023-02-13T07:05:07;66.33;;;24.83;;
22417;SDS011;11376;50.932;4.442;2023-02-13T07:07:33;74.50;;;25.50;;
22417;SDS011;11376;50.932;4.442;2023-02-13T07:10:00;66.67;;;23.87;;
22417;SDS011;11376;50.932;4.442;2023-02-13T07:12:26;70.30;;;25.13;;
22417;SDS011;11376;50.932;4.442;2023-02-13T07:14:52;64.50;;;24.03;;
22417;SDS011;11376;50.932;4.442;2023-02-13T07:17:18;70.63;;;24.57;;
22417;SDS011;11376;50.932;4.442;2023-02-13T07:19:43;80.93;;;26.30;;
22417;SDS011;11376;50.932;4.442;2023-02-13T07:22:09;71.97;;;24.60;;
22417;SDS011;11376;50.932;4.442;2023-02-13T07:24:34;71.47;;;25.90;;
22417;SDS011;11376;50.932;4.442;2023-02-13T07:27:02;72.70;;;26.13;;
22417;SDS011;11376;50.932;4.442;2023-02-13T07:29:28;70.13;;;26.33;;
22417;SDS011;11376;50.932;4.442;2023-02-13T07:31:54;78.93;;;26.03;;
22417;SDS011;11376;50.932;4.442;2023-02-13T07:34:19;79.63;;;27.23;;
22417;SDS011;11376;50.932;4.442;2023-02-13T07:36:45;79.10;;;25.93;;
22417;SDS011;11376;50.932;4.442;2023-02-13T07:39:10;74.63;;;24.90;;
22417;SDS011;11376;50.932;4.442;2023-02-13T07:41:36;79.87;;;25.70;;
22417;SDS011;11376;50.932;4.442;2023-02-13T07:44:01;68.53;;;24.73;;
22417;SDS011;11376;50.932;4.442;2023-02-13T07:46:27;72.80;;;25.83;;
22417;SDS011;11376;50.932;4.442;2023-02-13T07:48:53;74.10;;;25.10;;
22417;SDS011;11376;50.932;4.442;2023-02-13T07:51:18;73.40;;;25.30;;
22417;SDS011;11376;50.932;4.442;2023-02-13T07:53:44;67.53;;;24.10;;
22417;SDS011;11376;50.932;4.442;2023-02-13T07:56:10;69.17;;;26.63;;
22417;SDS011;11376;50.932;4.442;2023-02-13T07:58:36;70.87;;;26.57;;
22417;SDS011;11376;50.932;4.442;2023-02-13T08:01:07;70.30;;;26.53;;
22417;SDS011;11376;50.932;4.442;2023-02-13T08:03:34;73.77;;;27.57;;
22417;SDS011;11376;50.932;4.442;2023-02-13T08:06:00;75.33;;;27.37;;
22417;SDS011;11376;50.932;4.442;2023-02-13T08:08:26;76.20;;;27.30;;
22417;SDS011;11376;50.932;4.442;2023-02-13T08:10:51;73.10;;;26.13;;
22417;SDS011;11376;50.932;4.442;2023-02-13T08:13:36;76.20;;;26.63;;
22417;SDS011;11376;50.932;4.442;2023-02-13T08:16:02;73.00;;;27.80;;
22417;SDS011;11376;50.932;4.442;2023-02-13T08:18:27;76.33;;;28.00;;
22417;SDS011;11376;50.932;4.442;2023-02-13T08:20:53;75.40;;;26.93;;
22417;SDS011;11376;50.932;4.442;2023-02-13T08:23:18;80.03;;;28.43;;
22417;SDS011;11376;50.932;4.442;2023-02-13T08:25:44;85.90;;;29.10;;
22417;SDS011;11376;50.932;4.442;2023-02-13T08:28:11;93.10;;;30.37;;
22417;SDS011;11376;50.932;4.442;2023-02-13T08:30:37;80.23;;;28.93;;
22417;SDS011;11376;50.932;4.442;2023-02-13T08:33:03;78.90;;;29.23;;
22417;SDS011;11376;50.932;4.442;2023-02-13T08:35:28;87.37;;;29.90;;
22417;SDS011;11376;50.932;4.442;2023-02-13T08:37:55;81.17;;;29.30;;
22417;SDS011;11376;50.932;4.442;2023-02-13T08:40:21;84.30;;;31.77;;
22417;SDS011;11376;50.932;4.442;2023-02-13T08:42:47;88.90;;;31.70;;
22417;SDS011;11376;50.932;4.442;2023-02-13T08:45:13;83.50;;;31.73;;
22417;SDS011;11376;50.932;4.442;2023-02-13T08:47:38;90.27;;;32.10;;
22417;SDS011;11376;50.932;4.442;2023-02-13T08:50:04;82.27;;;31.90;;
22417;SDS011;11376;50.932;4.442;2023-02-13T08:52:30;91.97;;;30.57;;
22417;SDS011;11376;50.932;4.442;2023-02-13T08:54:56;83.70;;;32.60;;
22417;SDS011;11376;50.932;4.442;2023-02-13T08:57:22;91.03;;;31.70;;
22417;SDS011;11376;50.932;4.442;2023-02-13T08:59:47;87.23;;;31.80;;
22417;SDS011;11376;50.932;4.442;2023-02-13T09:02:13;84.43;;;32.37;;
22417;SDS011;11376;50.932;4.442;2023-02-13T09:04:39;77.50;;;30.63;;
22417;SDS011;11376;50.932;4.442;2023-02-13T09:07:04;77.17;;;29.83;;
22417;SDS011;11376;50.932;4.442;2023-02-13T09:09:30;72.70;;;29.50;;
22417;SDS011;11376;50.932;4.442;2023-02-13T09:11:55;72.17;;;29.33;;
22417;SDS011;11376;50.932;4.442;2023-02-13T09:14:22;73.07;;;31.33;;
22417;SDS011;11376;50.932;4.442;2023-02-13T09:16:48;81.07;;;31.40;;
22417;SDS011;11376;50.932;4.442;2023-02-13T09:19:14;75.33;;;30.77;;
22417;SDS011;11376;50.932;4.442;2023-02-13T09:21:39;71.20;;;29.10;;
22417;SDS011;11376;50.932;4.442;2023-02-13T09:24:08;64.90;;;27.53;;
22417;SDS011;11376;50.932;4.442;2023-02-13T09:26:34;78.23;;;28.57;;
22417;SDS011;11376;50.932;4.442;2023-02-13T09:29:00;67.77;;;27.77;;
22417;SDS011;11376;50.932;4.442;2023-02-13T09:31:26;62.93;;;27.80;;
22417;SDS011;11376;50.932;4.442;2023-02-13T09:33:51;66.23;;;28.10;;
22417;SDS011;11376;50.932;4.442;2023-02-13T09:36:21;59.83;;;26.57;;
22417;SDS011;11376;50.932;4.442;2023-02-13T09:38:52;64.43;;;26.97;;
22417;SDS011;11376;50.932;4.442;2023-02-13T09:41:23;63.80;;;26.00;;
22417;SDS011;11376;50.932;4.442;2023-02-13T09:43:54;48.77;;;24.10;;
22417;SDS011;11376;50.932;4.442;2023-02-13T09:46:36;45.57;;;21.50;;
22417;SDS011;11376;50.932;4.442;2023-02-13T09:49:07;51.60;;;22.43;;
22417;SDS011;11376;50.932;4.442;2023-02-13T09:51:37;44.33;;;21.67;;
22417;SDS011;11376;50.932;4.442;2023-02-13T09:54:13;42.93;;;20.20;;
22417;SDS011;11376;50.932;4.442;2023-02-13T09:56:54;36.67;;;17.87;;
22417;SDS011;11376;50.932;4.442;2023-02-13T10:02:33;31.10;;;16.37;;
22417;SDS011;11376;50.932;4.442;2023-02-13T10:10:49;26.73;;;12.63;;
22417;SDS011;11376;50.932;4.442;2023-02-13T10:22:03;21.67;;;11.97;;
22417;SDS011;11376;50.932;4.442;2023-02-13T10:27:24;20.42;;;12.10;;
22417;SDS011;11376;50.932;4.442;2023-02-13T10:30:19;21.52;;;11.70;;
22417;SDS011;11376;50.932;4.442;2023-02-13T10:32:59;23.77;;;11.95;;
22417;SDS011;11376;50.932;4.442;2023-02-13T10:35:47;20.80;;;11.20;;
22417;SDS011;11376;50.932;4.442;2023-02-13T10:38:29;20.38;;;11.30;;
22417;SDS011;11376;50.932;4.442;2023-02-13T10:43:22;18.25;;;11.35;;
22417;SDS011;11376;50.932;4.442;2023-02-13T10:46:04;18.23;;;11.77;;
22417;SDS011;11376;50.932;4.442;2023-02-13T10:48:47;17.88;;;11.95;;
22417;SDS011;11376;50.932;4.442;2023-02-13T10:54:21;16.20;;;12.27;;
22417;SDS011;11376;50.932;4.442;2023-02-13T10:59:53;17.70;;;12.45;;
22417;SDS011;11376;50.932;4.442;2023-02-13T11:02:39;17.63;;;12.80;;
22417;SDS011;11376;50.932;4.442;2023-02-13T11:07:31;15.20;;;12.02;;
22417;SDS011;11376;50.932;4.442;2023-02-13T11:09:59;17.33;;;12.00;;
22417;SDS011;11376;50.932;4.442;2023-02-13T11:12:30;17.67;;;12.43;;
22417;SDS011;11376;50.932;4.442;2023-02-13T11:15:00;15.45;;;11.70;;
22417;SDS011;11376;50.932;4.442;2023-02-13T11:17:30;18.83;;;11.52;;
22417;SDS011;11376;50.932;4.442;2023-02-13T11:20:06;18.48;;;12.07;;
22417;SDS011;11376;50.932;4.442;2023-02-13T11:22:47;16.30;;;11.90;;
22417;SDS011;11376;50.932;4.442;2023-02-13T11:25:17;18.00;;;11.63;;
22417;SDS011;11376;50.932;4.442;2023-02-13T11:27:44;18.52;;;12.48;;
22417;SDS011;11376;50.932;4.442;2023-02-13T11:33:05;16.35;;;11.48;;
22417;SDS011;11376;50.932;4.442;2023-02-13T11:35:46;14.82;;;11.07;;
22417;SDS011;11376;50.932;4.442;2023-02-13T11:40:42;15.40;;;10.82;;
22417;SDS011;11376;50.932;4.442;2023-02-13T11:48:30;14.95;;;11.05;;
22417;SDS011;11376;50.932;4.442;2023-02-13T11:50:56;17.10;;;11.63;;
22417;SDS011;11376;50.932;4.442;2023-02-13T11:53:23;14.25;;;10.98;;
22417;SDS011;11376;50.932;4.442;2023-02-13T11:56:00;14.43;;;10.73;;
22417;SDS011;11376;50.932;4.442;2023-02-13T11:58:33;14.52;;;11.18;;
22417;SDS011;11376;50.932;4.442;2023-02-13T12:09:36;14.55;;;10.93;;
22417;SDS011;11376;50.932;4.442;2023-02-13T12:12:04;13.20;;;10.73;;
22417;SDS011;11376;50.932;4.442;2023-02-13T12:14:36;12.98;;;10.35;;
22417;SDS011;11376;50.932;4.442;2023-02-13T12:19:40;13.13;;;10.40;;
22417;SDS011;11376;50.932;4.442;2023-02-13T12:24:45;13.65;;;10.80;;
22417;SDS011;11376;50.932;4.442;2023-02-13T12:32:55;11.70;;;9.52;;
22417;SDS011;11376;50.932;4.442;2023-02-13T13:03:16;12.25;;;9.10;;
22417;SDS011;11376;50.932;4.442;2023-02-13T13:19:41;11.27;;;8.80;;
22417;SDS011;11376;50.932;4.442;2023-02-13T13:22:39;10.00;;;8.45;;
22417;SDS011;11376;50.932;4.442;2023-02-13T13:25:12;10.93;;;7.68;;
22417;SDS011;11376;50.932;4.442;2023-02-13T13:27:46;9.63;;;7.93;;
22417;SDS011;11376;50.932;4.442;2023-02-13T13:30:20;9.48;;;7.72;;
22417;SDS011;11376;50.932;4.442;2023-02-13T13:32:51;9.52;;;7.20;;
22417;SDS011;11376;50.932;4.442;2023-02-13T13:35:21;11.18;;;7.40;;
22417;SDS011;11376;50.932;4.442;2023-02-13T13:37:50;10.55;;;8.18;;
22417;SDS011;11376;50.932;4.442;2023-02-13T13:45:35;9.45;;;8.02;;
22417;SDS011;11376;50.932;4.442;2023-02-13T13:51:13;12.10;;;8.23;;
22417;SDS011;11376;50.932;4.442;2023-02-13T13:54:17;10.95;;;8.20;;
22417;SDS011;11376;50.932;4.442;2023-02-13T13:57:02;10.73;;;8.73;;
22417;SDS011;11376;50.932;4.442;2023-02-13T13:59:19;10.82;;;8.27;;
22417;SDS011;11376;50.932;4.442;2023-02-13T14:07:41;9.77;;;7.75;;
22417;SDS011;11376;50.932;4.442;2023-02-13T14:12:49;9.63;;;7.82;;
22417;SDS011;11376;50.932;4.442;2023-02-13T14:33:59;12.95;;;8.10;;
22417;SDS011;11376;50.932;4.442;2023-02-13T14:36:39;12.80;;;8.05;;
22417;SDS011;11376;50.932;4.442;2023-02-13T14:49:45;9.88;;;6.72;;
22417;SDS011;11376;50.932;4.442;2023-02-13T14:52:17;10.18;;;6.80;;
22417;SDS011;11376;50.932;4.442;2023-02-13T14:54:51;10.75;;;7.40;;
22417;SDS011;11376;50.932;4.442;2023-02-13T14:57:23;10.88;;;7.03;;
22417;SDS011;11376;50.932;4.442;2023-02-13T14:59:54;9.95;;;6.80;;
22417;SDS011;11376;50.932;4.442;2023-02-13T15:05:00;10.48;;;6.65;;
22417;SDS011;11376;50.932;4.442;2023-02-13T15:07:30;11.65;;;6.93;;
22417;SDS011;11376;50.932;4.442;2023-02-13T15:12:40;10.00;;;6.10;;
22417;SDS011;11376;50.932;4.442;2023-02-13T15:15:25;9.63;;;6.50;;
22417;SDS011;11376;50.932;4.442;2023-02-13T15:17:56;8.85;;;6.30;;
22417;SDS011;11376;50.932;4.442;2023-02-13T15:20:29;8.40;;;5.97;;
22417;SDS011;11376;50.932;4.442;2023-02-13T15:22:57;9.70;;;6.30;;
22417;SDS011;11376;50.932;4.442;2023-02-13T15:28:03;9.02;;;6.28;;
22417;SDS011;11376;50.932;4.442;2023-02-13T15:30:36;10.43;;;6.15;;
22417;SDS011;11376;50.932;4.442;2023-02-13T15:33:16;8.25;;;5.95;;
22417;SDS011;11376;50.932;4.442;2023-02-13T15:35:44;9.98;;;6.00;;
22417;SDS011;11376;50.932;4.442;2023-02-13T15:41:08;9.40;;;5.78;;
22417;SDS011;11376;50.932;4.442;2023-02-13T15:43:47;9.60;;;6.22;;
22417;SDS011;11376;50.932;4.442;2023-02-13T15:46:19;9.57;;;6.25;;
22417;SDS011;11376;50.932;4.442;2023-02-13T15:48:49;9.77;;;6.72;;
22417;SDS011;11376;50.932;4.442;2023-02-13T15:51:19;10.30;;;6.45;;
22417;SDS011;11376;50.932;4.442;2023-02-13T15:53:54;10.27;;;6.53;;
22417;SDS011;11376;50.932;4.442;2023-02-13T15:56:20;13.00;;;6.85;;
22417;SDS011;11376;50.932;4.442;2023-02-13T15:58:46;10.00;;;6.03;;
22417;SDS011;11376;50.932;4.442;2023-02-13T16:01:13;10.45;;;6.60;;
22417;SDS011;11376;50.932;4.442;2023-02-13T16:03:40;10.43;;;6.35;;
22417;SDS011;11376;50.932;4.442;2023-02-13T16:06:08;11.75;;;6.22;;
22417;SDS011;11376;50.932;4.442;2023-02-13T16:08:53;10.98;;;6.30;;
22417;SDS011;11376;50.932;4.442;2023-02-13T16:11:23;9.73;;;5.68;;
22417;SDS011;11376;50.932;4.442;2023-02-13T16:13:55;10.27;;;5.65;;
22417;SDS011;11376;50.932;4.442;2023-02-13T16:16:22;11.35;;;6.13;;
22417;SDS011;11376;50.932;4.442;2023-02-13T16:18:48;12.38;;;6.35;;
22417;SDS011;11376;50.932;4.442;2023-02-13T16:21:14;12.80;;;6.47;;
22417;SDS011;11376;50.932;4.442;2023-02-13T16:23:45;10.23;;;5.85;;
22417;SDS011;11376;50.932;4.442;2023-02-13T16:26:11;10.98;;;6.28;;
22417;SDS011;11376;50.932;4.442;2023-02-13T16:28:39;12.20;;;6.65;;
22417;SDS011;11376;50.932;4.442;2023-02-13T16:31:11;12.35;;;6.93;;
22417;SDS011;11376;50.932;4.442;2023-02-13T16:33:39;9.85;;;5.95;;
22417;SDS011;11376;50.932;4.442;2023-02-13T16:38:47;11.55;;;6.55;;
22417;SDS011;11376;50.932;4.442;2023-02-13T16:46:32;13.52;;;6.70;;
22417;SDS011;11376;50.932;4.442;2023-02-13T16:49:01;8.75;;;5.63;;
22417;SDS011;11376;50.932;4.442;2023-02-13T16:51:51;11.10;;;6.13;;
22417;SDS011;11376;50.932;4.442;2023-02-13T16:54:32;12.27;;;6.70;;
22417;SDS011;11376;50.932;4.442;2023-02-13T17:07:27;17.13;;;8.13;;
22417;SDS011;11376;50.932;4.442;2023-02-13T17:09:57;14.10;;;7.27;;
22417;SDS011;11376;50.932;4.442;2023-02-13T17:12:32;17.50;;;7.17;;
22417;SDS011;11376;50.932;4.442;2023-02-13T17:15:00;13.80;;;7.37;;
22417;SDS011;11376;50.932;4.442;2023-02-13T17:17:27;15.20;;;6.87;;
22417;SDS011;11376;50.932;4.442;2023-02-13T17:19:54;13.73;;;7.30;;
22417;SDS011;11376;50.932;4.442;2023-02-13T17:22:21;15.63;;;7.20;;
22417;SDS011;11376;50.932;4.442;2023-02-13T17:24:47;15.23;;;7.53;;
22417;SDS011;11376;50.932;4.442;2023-02-13T17:27:13;14.80;;;7.37;;
22417;SDS011;11376;50.932;4.442;2023-02-13T17:29:38;15.47;;;7.03;;
22417;SDS011;11376;50.932;4.442;2023-02-13T17:32:04;15.60;;;7.33;;
22417;SDS011;11376;50.932;4.442;2023-02-13T17:34:29;13.00;;;7.77;;
22417;SDS011;11376;50.932;4.442;2023-02-13T17:36:55;12.40;;;7.40;;
22417;SDS011;11376;50.932;4.442;2023-02-13T17:39:21;15.90;;;8.00;;
22417;SDS011;11376;50.932;4.442;2023-02-13T17:41:46;15.43;;;8.00;;
22417;SDS011;11376;50.932;4.442;2023-02-13T17:44:12;14.77;;;8.03;;
22417;SDS011;11376;50.932;4.442;2023-02-13T17:46:38;17.87;;;9.37;;
22417;SDS011;11376;50.932;4.442;2023-02-13T17:49:04;21.43;;;9.90;;
22417;SDS011;11376;50.932;4.442;2023-02-13T17:51:29;25.50;;;11.00;;
22417;SDS011;11376;50.932;4.442;2023-02-13T17:53:56;22.57;;;10.60;;
22417;SDS011;11376;50.932;4.442;2023-02-13T17:56:21;18.53;;;9.87;;
22417;SDS011;11376;50.932;4.442;2023-02-13T17:58:47;20.40;;;10.97;;
22417;SDS011;11376;50.932;4.442;2023-02-13T18:01:12;24.03;;;12.40;;
22417;SDS011;11376;50.932;4.442;2023-02-13T18:03:38;26.87;;;12.07;;
22417;SDS011;11376;50.932;4.442;2023-02-13T18:06:04;20.73;;;11.77;;